createdAt,value
2022-08-27T00:00:29.681Z,63.30
2022-08-27T00:04:11.768Z,63.40
2022-08-27T00:07:54.237Z,63.60
2022-08-27T00:11:36.413Z,63.70
2022-08-27T00:15:18.691Z,63.90
2022-08-27T00:19:00.716Z,64.10
2022-08-27T00:22:43.249Z,64.30
2022-08-27T00:26:25.536Z,64.50
2022-08-27T00:30:13.064Z,64.60
2022-08-27T00:33:55.805Z,65.00
2022-08-27T00:37:38.100Z,65.00
2022-08-27T00:41:21.159Z,65.10
2022-08-27T00:45:05.394Z,65.30
2022-08-27T00:48:49.332Z,65.50
2022-08-27T00:52:34.664Z,65.60
2022-08-27T00:56:25.084Z,66.00
2022-08-27T01:00:11.669Z,66.30
2022-08-27T01:04:00.449Z,66.00
2022-08-27T01:07:46.974Z,66.20
2022-08-27T01:11:29.477Z,66.40
2022-08-27T01:15:19.800Z,66.40
2022-08-27T01:19:06.155Z,66.60
2022-08-27T01:23:06.368Z,66.70
2022-08-27T01:26:48.756Z,66.80
2022-08-27T01:30:31.561Z,66.80
2022-08-27T01:34:13.758Z,66.90
2022-08-27T01:37:57.030Z,66.90
2022-08-27T01:41:39.260Z,66.90
2022-08-27T01:45:26.193Z,67.00
2022-08-27T01:49:10.612Z,67.30
2022-08-27T01:52:53.222Z,67.20
2022-08-27T01:56:35.193Z,67.20
2022-08-27T02:00:21.544Z,67.30
2022-08-27T02:04:03.652Z,67.50
2022-08-27T02:07:46.248Z,67.60
2022-08-27T02:11:28.211Z,67.80
2022-08-27T02:15:11.132Z,67.80
2022-08-27T02:18:54.652Z,67.80
2022-08-27T02:22:38.383Z,68.00
2022-08-27T02:26:20.611Z,68.00
2022-08-27T02:30:03.346Z,68.00
2022-08-27T02:33:45.198Z,68.00
2022-08-27T02:37:28.516Z,68.10
2022-08-27T02:41:10.650Z,68.10
2022-08-27T02:44:54.372Z,68.20
2022-08-27T02:48:37.694Z,68.20
2022-08-27T02:52:22.816Z,68.30
2022-08-27T02:56:07.837Z,68.30
2022-08-27T02:59:51.209Z,68.30
2022-08-27T03:03:33.141Z,68.30
2022-08-27T03:07:18.765Z,68.50
2022-08-27T03:11:01.390Z,68.50
2022-08-27T03:14:43.451Z,68.60
2022-08-27T03:18:25.429Z,68.70
2022-08-27T03:22:07.275Z,68.70
2022-08-27T03:25:55.275Z,68.70
2022-08-27T03:29:37.197Z,68.80
2022-08-27T03:33:21.570Z,68.80
2022-08-27T03:37:03.496Z,68.90
2022-08-27T03:40:45.551Z,68.80
2022-08-27T03:44:27.409Z,68.90
2022-08-27T03:48:10.041Z,69.00
2022-08-27T03:51:52.818Z,69.00
2022-08-27T03:55:34.698Z,69.00
2022-08-27T03:59:16.651Z,69.10
2022-08-27T04:02:58.548Z,69.10
2022-08-27T04:06:41.496Z,69.20
2022-08-27T04:10:23.631Z,69.10
2022-08-27T04:14:14.527Z,69.10
2022-08-27T04:18:09.020Z,69.10
2022-08-27T04:21:51.064Z,69.10
2022-08-27T04:25:33.238Z,69.20
2022-08-27T04:29:15.144Z,69.20
2022-08-27T04:32:58.478Z,69.20
2022-08-27T04:36:40.376Z,69.30
2022-08-27T04:40:22.332Z,69.20
2022-08-27T04:44:07.330Z,69.20
2022-08-27T04:47:49.569Z,69.30
2022-08-27T04:51:31.592Z,69.20
2022-08-27T04:55:13.893Z,69.20
2022-08-27T04:58:56.785Z,69.30
2022-08-27T05:02:38.612Z,69.20
2022-08-27T05:06:21.479Z,69.30
2022-08-27T05:10:03.430Z,69.30
2022-08-27T05:13:46.429Z,69.30
2022-08-27T05:17:31.406Z,69.40
2022-08-27T05:21:25.547Z,69.40
2022-08-27T05:25:08.148Z,70.00
2022-08-27T05:28:50.229Z,69.40
2022-08-27T05:32:32.301Z,69.40
2022-08-27T05:36:20.612Z,69.40
2022-08-27T05:40:04.477Z,69.70
2022-08-27T05:43:50.243Z,69.40
2022-08-27T05:47:32.623Z,69.40
2022-08-27T05:51:28.793Z,69.60
2022-08-27T05:55:10.728Z,69.30
2022-08-27T05:59:11.515Z,69.10
2022-08-27T06:02:53.944Z,69.10
2022-08-27T06:06:38.392Z,69.10
2022-08-27T06:10:20.393Z,69.20
2022-08-27T06:14:02.436Z,69.70
2022-08-27T06:17:44.273Z,69.80
2022-08-27T06:21:26.483Z,69.60
2022-08-27T06:25:08.794Z,69.30
2022-08-27T06:28:51.065Z,69.00
2022-08-27T06:32:32.964Z,68.60
2022-08-27T06:36:20.841Z,68.10
2022-08-27T06:40:03.159Z,67.50
2022-08-27T06:43:45.316Z,67.00
2022-08-27T06:47:27.205Z,66.50
2022-08-27T06:51:17.009Z,66.00
2022-08-27T06:54:58.975Z,65.30
2022-08-27T06:58:42.201Z,64.80
2022-08-27T07:02:24.264Z,64.50
2022-08-27T07:06:07.760Z,64.20
2022-08-27T07:09:50.285Z,64.00
2022-08-27T07:13:32.173Z,63.60
2022-08-27T07:17:15.947Z,63.10
2022-08-27T07:20:58.385Z,62.50
2022-08-27T07:24:41.111Z,61.90
2022-08-27T07:28:26.074Z,61.20
2022-08-27T07:32:08.142Z,60.90
2022-08-27T07:35:50.114Z,60.20
2022-08-27T07:39:32.126Z,59.50
2022-08-27T07:43:32.474Z,58.50
2022-08-27T07:47:14.347Z,57.70
2022-08-27T07:50:56.614Z,56.70
2022-08-27T07:54:38.873Z,55.60
2022-08-27T07:58:20.945Z,54.40
2022-08-27T08:02:03.878Z,53.20
2022-08-27T08:05:45.833Z,52.10
2022-08-27T08:09:28.160Z,51.60
2022-08-27T08:13:10.544Z,51.10
2022-08-27T08:16:53.278Z,50.20
2022-08-27T08:20:56.415Z,49.70
2022-08-27T08:24:37.193Z,49.00
2022-08-27T08:28:19.131Z,48.10
2022-08-27T08:32:01.025Z,47.20
2022-08-27T08:35:43.097Z,46.50
2022-08-27T08:39:25.015Z,45.80
2022-08-27T08:43:12.886Z,45.40
2022-08-27T08:47:14.583Z,44.60
2022-08-27T08:51:24.284Z,42.30
2022-08-27T08:55:12.152Z,41.80
2022-08-27T08:59:14.596Z,42.40
2022-08-27T09:02:57.660Z,40.20
2022-08-27T09:06:45.471Z,40.80
2022-08-27T09:10:33.737Z,39.70
2022-08-27T09:14:18.492Z,39.70
2022-08-27T09:18:14.555Z,38.80
2022-08-27T09:22:15.312Z,37.30
2022-08-27T09:25:57.371Z,37.50
2022-08-27T09:29:48.687Z,37.30
2022-08-27T09:33:42.102Z,35.60
2022-08-27T09:37:40.524Z,35.80
2022-08-27T09:41:31.559Z,34.80
2022-08-27T09:45:25.836Z,34.50
2022-08-27T09:49:16.602Z,33.50
2022-08-27T09:52:59.706Z,33.00
2022-08-27T09:56:49.447Z,33.20
2022-08-27T10:00:38.430Z,32.10
2022-08-27T10:04:50.995Z,31.50
2022-08-27T10:08:46.437Z,31.10
2022-08-27T10:12:36.793Z,30.60
2022-08-27T10:16:40.411Z,30.30
2022-08-27T10:21:23.415Z,30.30
2022-08-27T10:25:41.162Z,30.00
2022-08-27T10:29:33.653Z,29.50
2022-08-27T10:33:37.039Z,28.40
2022-08-27T10:37:40.288Z,28.90
2022-08-27T10:41:29.657Z,28.80
2022-08-27T10:45:33.152Z,27.90
2022-08-27T10:49:18.378Z,27.60
2022-08-27T10:53:11.883Z,28.10
2022-08-27T10:57:40.219Z,26.60
2022-08-27T11:01:36.557Z,26.50
2022-08-27T11:05:24.126Z,25.50
2022-08-27T11:09:19.241Z,25.40
2022-08-27T11:13:07.589Z,25.10
2022-08-27T11:16:55.390Z,24.40
2022-08-27T11:21:04.963Z,24.60
2022-08-27T11:24:59.843Z,25.20
2022-08-27T11:28:48.693Z,25.20
2022-08-27T11:32:44.933Z,26.00
2022-08-27T11:36:54.428Z,25.00
2022-08-27T11:41:01.594Z,24.40
2022-08-27T11:44:47.213Z,23.60
2022-08-27T11:48:33.652Z,24.20
2022-08-27T11:52:32.982Z,23.10
2022-08-27T11:56:20.825Z,21.80
2022-08-27T12:00:26.680Z,21.50
2022-08-27T12:04:21.098Z,20.70
2022-08-27T12:08:18.832Z,19.90
2022-08-27T12:12:14.354Z,19.40
2022-08-27T12:16:28.776Z,19.60
2022-08-27T12:20:28.106Z,19.10
2022-08-27T12:24:22.008Z,18.80
2022-08-27T12:28:07.020Z,17.60
2022-08-27T12:31:50.920Z,18.20
2022-08-27T12:40:37.911Z,16.80
2022-08-27T12:45:13.519Z,17.30
2022-08-27T12:49:10.119Z,17.40
2022-08-27T12:53:39.106Z,17.40
2022-08-27T12:57:25.775Z,17.10
2022-08-27T13:01:32.710Z,16.40
2022-08-27T13:05:20.984Z,16.10
2022-08-27T13:09:06.393Z,16.30
2022-08-27T13:12:49.141Z,16.50
2022-08-27T13:16:31.997Z,16.50
2022-08-27T13:20:22.959Z,16.90
2022-08-27T13:24:11.942Z,15.60
2022-08-27T13:27:59.902Z,16.40
2022-08-27T13:31:42.701Z,16.50
2022-08-27T13:35:25.064Z,16.80
2022-08-27T13:39:08.104Z,17.00
2022-08-27T13:42:50.593Z,17.20
2022-08-27T13:46:34.142Z,17.00
2022-08-27T13:50:36.847Z,16.90
2022-08-27T13:54:20.499Z,16.30
2022-08-27T13:58:16.223Z,17.10
2022-08-27T14:02:11.896Z,16.70
2022-08-27T14:05:57.153Z,16.90
2022-08-27T14:09:54.443Z,18.30
2022-08-27T14:13:44.558Z,19.70
2022-08-27T14:17:38.144Z,21.10
2022-08-27T14:21:21.756Z,21.80
2022-08-27T14:25:04.880Z,22.30
2022-08-27T14:28:54.097Z,22.80
2022-08-27T14:32:36.115Z,23.60
2022-08-27T14:36:18.607Z,23.80
2022-08-27T14:40:01.116Z,24.20
2022-08-27T14:43:43.559Z,24.50
2022-08-27T14:47:33.840Z,24.80
2022-08-27T14:51:23.187Z,25.20
2022-08-27T14:55:10.420Z,25.60
2022-08-27T14:58:54.284Z,25.70
2022-08-27T15:02:47.899Z,26.00
2022-08-27T15:06:30.323Z,26.20
2022-08-27T15:10:13.842Z,26.50
2022-08-27T15:13:57.757Z,26.90
2022-08-27T15:17:41.629Z,27.10
2022-08-27T15:21:24.077Z,27.50
2022-08-27T15:25:07.541Z,27.70
2022-08-27T15:28:50.629Z,27.80
2022-08-27T15:32:36.160Z,27.90
2022-08-27T15:36:18.103Z,27.90
2022-08-27T15:40:00.685Z,27.80
2022-08-27T15:43:43.284Z,27.90
2022-08-27T15:47:25.998Z,28.10
2022-08-27T15:51:11.079Z,28.30
2022-08-27T15:54:53.060Z,28.70
2022-08-27T15:58:36.764Z,28.90
2022-08-27T16:02:24.056Z,29.00
2022-08-27T16:06:06.760Z,29.70
2022-08-27T16:09:49.188Z,29.30
2022-08-27T16:13:31.292Z,29.40
2022-08-27T16:17:13.354Z,29.40
2022-08-27T16:20:57.059Z,29.60
2022-08-27T16:24:38.866Z,29.80
2022-08-27T16:28:20.721Z,29.80
2022-08-27T16:32:02.969Z,30.00
2022-08-27T16:35:46.449Z,30.20
2022-08-27T16:39:33.042Z,30.40
2022-08-27T16:43:21.105Z,30.60
2022-08-27T16:47:03.467Z,30.90
2022-08-27T16:50:45.421Z,31.00
2022-08-27T16:54:27.729Z,31.10
2022-08-27T16:58:22.786Z,31.20
2022-08-27T17:02:05.123Z,31.60
2022-08-27T17:05:47.244Z,31.80
2022-08-27T17:09:31.476Z,32.30
2022-08-27T17:13:20.369Z,32.50
2022-08-27T17:17:02.735Z,33.70
2022-08-27T17:20:46.492Z,33.10
2022-08-27T17:24:28.317Z,33.30
2022-08-27T17:28:10.543Z,33.40
2022-08-27T17:31:52.479Z,33.50
2022-08-27T17:35:34.428Z,33.60
2022-08-27T17:39:16.845Z,33.70
2022-08-27T17:42:58.776Z,33.80
2022-08-27T17:46:41.020Z,33.90
2022-08-27T17:50:23.047Z,34.00
2022-08-27T17:54:06.117Z,34.20
2022-08-27T17:57:48.078Z,34.40
2022-08-27T18:01:32.287Z,34.90
2022-08-27T18:05:15.599Z,35.50
2022-08-27T18:08:57.588Z,35.70
2022-08-27T18:12:40.778Z,36.10
2022-08-27T18:16:22.863Z,36.60
2022-08-27T18:20:07.606Z,37.00
2022-08-27T18:23:49.431Z,37.50
2022-08-27T18:27:34.280Z,37.70
2022-08-27T18:31:18.743Z,38.20
2022-08-27T18:35:07.207Z,38.40
2022-08-27T18:38:50.225Z,39.30
2022-08-27T18:42:35.625Z,39.00
2022-08-27T18:46:18.080Z,39.50
2022-08-27T18:50:00.314Z,39.80
2022-08-27T18:53:44.389Z,40.20
2022-08-27T18:57:26.554Z,40.60
2022-08-27T19:01:12.782Z,40.70
2022-08-27T19:04:54.993Z,41.60
2022-08-27T19:08:38.038Z,41.40
2022-08-27T19:12:19.972Z,41.70
2022-08-27T19:16:11.951Z,42.00
2022-08-27T19:19:55.980Z,43.60
2022-08-27T19:23:38.437Z,42.40
2022-08-27T19:27:25.034Z,42.80
2022-08-27T19:31:08.301Z,43.50
2022-08-27T19:34:50.266Z,43.50
2022-08-27T19:38:32.745Z,43.80
2022-08-27T19:42:14.677Z,44.10
2022-08-27T19:45:58.341Z,44.40
2022-08-27T19:49:40.697Z,44.60
2022-08-27T19:53:23.741Z,44.80
2022-08-27T19:57:05.722Z,45.10
2022-08-27T20:00:47.951Z,45.40
2022-08-27T20:04:34.926Z,45.70
2022-08-27T20:08:20.017Z,45.90
2022-08-27T20:12:02.401Z,46.20
2022-08-27T20:15:44.683Z,46.40
2022-08-27T20:19:28.991Z,46.60
2022-08-27T20:23:12.326Z,46.90
2022-08-27T20:26:56.464Z,47.20
2022-08-27T20:30:40.128Z,47.30
2022-08-27T20:34:25.189Z,47.50
2022-08-27T20:38:11.524Z,47.80
2022-08-27T20:41:53.530Z,48.00
2022-08-27T20:45:37.519Z,48.20
2022-08-27T20:49:20.764Z,48.40
2022-08-27T20:53:02.672Z,48.60
2022-08-27T20:56:52.117Z,48.90
2022-08-27T21:00:36.937Z,49.20
2022-08-27T21:04:18.916Z,49.50
2022-08-27T21:08:02.424Z,49.70
2022-08-27T21:11:44.354Z,49.80
2022-08-27T21:15:26.573Z,49.90
2022-08-27T21:19:08.536Z,50.10
2022-08-27T21:22:51.286Z,50.30
2022-08-27T21:26:34.218Z,50.50
2022-08-27T21:30:16.505Z,50.60
2022-08-27T21:33:58.548Z,50.90
2022-08-27T21:37:41.932Z,51.00
2022-08-27T21:41:24.480Z,51.20
2022-08-27T21:45:06.876Z,51.30
2022-08-27T21:48:57.677Z,51.60
2022-08-27T21:52:41.158Z,51.60
2022-08-27T21:56:23.070Z,51.70
2022-08-27T22:00:28.587Z,51.80
2022-08-27T22:04:10.851Z,53.80
2022-08-27T22:07:52.706Z,51.80
2022-08-27T22:11:34.992Z,52.00
2022-08-27T22:15:16.916Z,52.10
2022-08-27T22:18:58.908Z,52.20
2022-08-27T22:22:40.820Z,52.20
2022-08-27T22:26:22.968Z,52.20
2022-08-27T22:30:10.899Z,52.30
2022-08-27T22:33:53.560Z,52.40
2022-08-27T22:37:36.464Z,52.40
2022-08-27T22:41:18.678Z,52.50
2022-08-27T22:45:00.932Z,52.60
2022-08-27T22:48:42.868Z,52.70
2022-08-27T22:52:28.290Z,52.80
2022-08-27T22:56:10.491Z,52.90
2022-08-27T22:59:52.423Z,53.00
2022-08-27T23:03:34.452Z,53.20
2022-08-27T23:07:16.417Z,53.30
2022-08-27T23:10:58.294Z,53.40
2022-08-27T23:14:40.185Z,53.50
2022-08-27T23:18:22.025Z,53.60
2022-08-27T23:22:07.297Z,53.70
2022-08-27T23:26:07.853Z,53.90
2022-08-27T23:29:49.817Z,53.90
2022-08-27T23:33:31.673Z,54.00
2022-08-27T23:37:13.968Z,54.10
2022-08-27T23:40:55.915Z,54.10
2022-08-27T23:44:37.784Z,54.20
2022-08-27T23:48:20.069Z,54.40
2022-08-27T23:52:02.550Z,54.40
2022-08-27T23:55:44.981Z,54.60
2022-08-27T23:59:30.360Z,54.70
